createdAt,value
2022-08-24T03:32:59.986Z,100065.84
2022-08-24T03:36:03.026Z,100065.84
2022-08-24T03:39:05.265Z,100063.09
2022-08-24T03:42:07.990Z,100073.69
2022-08-24T03:45:10.963Z,100072.66
2022-08-24T03:48:15.524Z,100072.81
2022-08-24T03:51:20.230Z,100080.09
2022-08-24T03:54:23.158Z,100074.00
2022-08-24T03:57:25.504Z,100073.09
2022-08-24T04:00:28.015Z,100080.44
2022-08-24T04:03:35.988Z,100077.84
2022-08-24T04:06:44.160Z,100086.44
2022-08-24T04:09:46.638Z,100087.41
2022-08-24T04:12:48.958Z,100091.03
2022-08-24T04:15:52.905Z,100078.69
2022-08-24T04:18:57.792Z,100086.72
2022-08-24T04:22:00.659Z,100077.09
2022-08-24T04:25:08.903Z,100078.81
2022-08-24T04:28:14.449Z,100080.72
2022-08-24T04:31:18.212Z,100070.28
2022-08-24T04:34:20.735Z,100078.44
2022-08-24T04:37:28.170Z,100072.41
2022-08-24T04:40:32.353Z,100072.50
2022-08-24T04:43:35.777Z,100070.87
2022-08-24T04:46:39.258Z,100080.78
2022-08-24T04:49:43.438Z,100082.75
2022-08-24T04:52:45.844Z,100089.00
2022-08-24T04:55:51.246Z,100079.94
2022-08-24T04:58:55.489Z,100065.44
2022-08-24T05:01:57.731Z,100055.72
2022-08-24T05:05:00.300Z,100060.87
2022-08-24T05:08:02.722Z,100059.94
2022-08-24T05:11:07.477Z,100065.25
2022-08-24T05:14:11.158Z,100072.59
2022-08-24T05:17:13.659Z,100074.53
2022-08-24T05:20:17.395Z,100069.59
2022-08-24T05:23:20.142Z,100071.50
2022-08-24T05:26:24.991Z,100075.91
2022-08-24T05:29:27.739Z,100080.56
2022-08-24T05:32:30.059Z,100071.06
2022-08-24T05:35:43.734Z,100071.25
2022-08-24T05:38:47.947Z,100066.00
2022-08-24T05:41:50.742Z,100067.09
2022-08-24T05:44:53.273Z,100069.88
2022-08-24T05:47:56.073Z,100077.94
2022-08-24T05:50:59.567Z,100070.84
2022-08-24T05:54:04.901Z,100069.09
2022-08-24T05:57:08.282Z,100071.72
2022-08-24T06:00:12.459Z,100066.41
2022-08-24T06:03:17.835Z,100065.38
2022-08-24T06:06:23.221Z,100059.78
2022-08-24T06:09:26.435Z,100066.75
2022-08-24T06:12:29.047Z,100064.97
2022-08-24T06:15:31.246Z,100070.06
2022-08-24T06:18:35.026Z,100061.59
2022-08-24T06:21:40.965Z,100063.41
2022-08-24T06:25:01.750Z,100060.41
2022-08-24T06:28:04.022Z,100059.53
2022-08-24T06:31:10.047Z,100069.16
2022-08-24T06:34:14.830Z,100068.09
2022-08-24T06:37:18.350Z,100073.25
2022-08-24T06:40:21.154Z,100077.63
2022-08-24T06:43:27.076Z,100076.31
2022-08-24T06:46:32.566Z,100081.78
2022-08-24T06:49:37.245Z,100087.25
2022-08-24T06:52:40.038Z,100089.56
2022-08-24T06:55:50.843Z,100084.22
2022-08-24T06:58:53.069Z,100085.28
2022-08-24T07:01:57.728Z,100092.09
2022-08-24T07:05:00.951Z,100100.03
2022-08-24T07:08:09.523Z,100108.50
2022-08-24T07:11:17.957Z,100100.00
2022-08-24T07:14:21.642Z,100107.75
2022-08-24T07:17:24.173Z,100104.72
2022-08-24T07:20:30.280Z,100120.22
2022-08-24T07:23:42.608Z,100129.41
2022-08-24T07:26:45.394Z,100122.37
2022-08-24T07:29:59.984Z,100136.75
2022-08-24T07:33:11.275Z,100137.22
2022-08-24T07:36:16.987Z,100147.91
2022-08-24T07:39:25.528Z,100141.81
2022-08-24T07:42:32.033Z,100144.31
2022-08-24T07:45:35.483Z,100136.31
2022-08-24T07:48:37.893Z,100134.44
2022-08-24T07:51:43.765Z,100148.06
2022-08-24T07:54:49.593Z,100140.72
2022-08-24T07:57:52.671Z,100137.81
2022-08-24T08:00:55.342Z,100143.09
2022-08-24T08:03:57.867Z,100145.69
2022-08-24T08:07:01.384Z,100154.66
2022-08-24T08:10:04.766Z,100156.03
2022-08-24T08:13:07.682Z,100143.50
2022-08-24T08:16:11.744Z,100147.28
2022-08-24T08:19:14.187Z,100145.03
2022-08-24T08:22:35.805Z,100149.03
2022-08-24T08:25:54.534Z,100148.81
2022-08-24T08:28:58.026Z,100149.91
2022-08-24T08:32:00.642Z,100153.06
2022-08-24T08:35:03.646Z,100164.06
2022-08-24T08:38:07.539Z,100162.06
2022-08-24T08:41:39.573Z,100153.81
2022-08-24T08:44:49.690Z,100159.37
2022-08-24T08:48:36.597Z,100164.19
2022-08-24T08:51:48.451Z,100158.50
2022-08-24T08:55:21.209Z,100160.13
2022-08-24T08:59:04.252Z,100154.38
2022-08-24T09:02:49.873Z,100152.66
2022-08-24T09:06:06.167Z,100162.06
2022-08-24T09:09:40.903Z,100169.81
2022-08-24T09:12:45.783Z,100164.06
2022-08-24T09:16:10.429Z,100154.12
2022-08-24T09:19:35.318Z,100153.44
2022-08-24T09:22:43.627Z,100154.38
2022-08-24T09:26:03.767Z,100149.00
2022-08-24T09:29:17.267Z,100147.03
2022-08-24T09:33:00.170Z,100142.69
2022-08-24T09:36:14.860Z,100140.34
2022-08-24T09:39:27.023Z,100139.31
2022-08-24T09:42:49.282Z,100138.50
2022-08-24T09:46:29.076Z,100142.53
2022-08-24T09:50:19.821Z,100138.06
2022-08-24T09:53:47.525Z,100132.34
2022-08-24T09:57:11.991Z,100128.41
2022-08-24T10:00:24.007Z,100126.38
2022-08-24T10:03:38.488Z,100126.47
2022-08-24T10:06:59.919Z,100113.38
2022-08-24T10:10:20.371Z,100118.47
2022-08-24T10:13:39.944Z,100123.13
2022-08-24T10:17:08.917Z,100122.41
2022-08-24T10:20:56.827Z,100124.59
2022-08-24T10:24:20.704Z,100122.06
2022-08-24T10:27:43.972Z,100123.25
2022-08-24T10:30:57.734Z,100125.66
2022-08-24T10:34:31.935Z,100124.41
2022-08-24T10:38:19.519Z,100136.03
2022-08-24T10:41:24.703Z,100135.78
2022-08-24T10:44:53.514Z,100126.06
2022-08-24T10:48:12.604Z,100124.34
2022-08-24T10:51:40.100Z,100133.47
2022-08-24T10:54:42.738Z,100130.97
2022-08-24T10:58:23.632Z,100119.63
2022-08-24T11:01:33.929Z,100123.53
2022-08-24T11:04:37.329Z,100123.00
2022-08-24T11:07:58.331Z,100130.00
2022-08-24T11:11:13.106Z,100130.16
2022-08-24T11:14:15.124Z,100125.13
2022-08-24T11:17:22.951Z,100123.84
2022-08-24T11:20:36.374Z,100122.31
2022-08-24T11:23:42.747Z,100127.56
2022-08-24T11:27:06.930Z,100138.94
2022-08-24T11:30:18.407Z,100131.56
2022-08-24T11:33:35.454Z,100138.59
2022-08-24T11:36:39.065Z,100142.88
2022-08-24T11:39:41.217Z,100147.69
2022-08-24T11:42:44.110Z,100150.03
2022-08-24T11:46:46.643Z,100154.34
